createdAt,value
2022-09-28T00:00:00.317Z,8.00
2022-09-28T00:02:32.395Z,8.00
2022-09-28T00:05:00.881Z,7.90
2022-09-28T00:07:29.648Z,7.90
2022-09-28T00:09:57.879Z,7.90
2022-09-28T00:12:27.225Z,7.90
2022-09-28T00:14:58.133Z,7.90
2022-09-28T00:17:26.628Z,7.80
2022-09-28T00:19:58.153Z,7.90
2022-09-28T00:22:28.703Z,7.80
2022-09-28T00:24:58.271Z,7.80
2022-09-28T00:27:28.074Z,7.90
2022-09-28T00:29:58.057Z,7.90
2022-09-28T00:32:26.933Z,7.90
2022-09-28T00:34:56.570Z,7.90
2022-09-28T00:37:25.186Z,8.00
2022-09-28T00:39:53.428Z,8.00
2022-09-28T00:42:23.822Z,8.00
2022-09-28T00:44:52.947Z,8.00
2022-09-28T00:47:44.543Z,8.10
2022-09-28T00:50:22.114Z,8.10
2022-09-28T00:52:54.918Z,8.10
2022-09-28T00:55:33.924Z,8.10
2022-09-28T00:58:06.628Z,8.10
2022-09-28T01:03:33.347Z,8.20
2022-09-28T01:06:08.891Z,8.10
2022-09-28T01:08:39.672Z,8.00
2022-09-28T01:11:08.012Z,8.10
2022-09-28T01:13:39.277Z,8.00
2022-09-28T01:16:14.266Z,8.00
2022-09-28T01:18:52.993Z,8.00
2022-09-28T01:21:24.271Z,7.80
2022-09-28T01:24:25.030Z,7.80
2022-09-28T01:27:06.861Z,7.90
2022-09-28T01:29:48.143Z,7.90
2022-09-28T01:32:25.916Z,7.90
2022-09-28T01:34:59.672Z,7.90
2022-09-28T01:37:36.541Z,8.00
2022-09-28T01:40:07.753Z,7.90
2022-09-28T01:42:41.217Z,7.90
2022-09-28T01:45:15.784Z,7.80
2022-09-28T01:47:50.265Z,7.90
2022-09-28T01:50:23.977Z,7.90
2022-09-28T01:53:00.281Z,7.80
2022-09-28T01:55:31.839Z,7.80
2022-09-28T01:58:05.989Z,7.80
2022-09-28T02:00:39.374Z,7.60
2022-09-28T02:03:12.493Z,7.70
2022-09-28T02:05:43.545Z,7.70
2022-09-28T02:08:20.018Z,7.80
2022-09-28T02:10:53.382Z,7.80
2022-09-28T02:13:29.774Z,7.70
2022-09-28T02:16:06.591Z,7.50
2022-09-28T02:18:38.824Z,7.80
2022-09-28T02:21:18.802Z,7.70
2022-09-28T02:23:57.416Z,7.70
2022-09-28T02:26:32.909Z,7.60
2022-09-28T02:29:02.668Z,7.60
2022-09-28T02:31:33.354Z,7.70
2022-09-28T02:34:03.220Z,7.70
2022-09-28T02:36:35.627Z,7.80
2022-09-28T02:39:07.719Z,7.80
2022-09-28T02:41:49.019Z,7.80
2022-09-28T02:44:34.689Z,7.90
2022-09-28T02:47:11.494Z,7.90
2022-09-28T02:49:48.373Z,7.80
2022-09-28T02:52:33.245Z,7.80
2022-09-28T02:55:31.432Z,7.80
2022-09-28T02:58:18.947Z,7.70
2022-09-28T03:00:58.565Z,7.80
2022-09-28T03:03:38.588Z,7.80
2022-09-28T03:06:12.562Z,7.90
2022-09-28T03:08:46.352Z,7.90
2022-09-28T03:11:21.114Z,7.70
2022-09-28T03:13:54.286Z,7.80
2022-09-28T03:16:24.137Z,7.60
2022-09-28T03:25:19.393Z,7.70
2022-09-28T03:31:09.719Z,7.80
2022-09-28T03:33:40.720Z,7.60
2022-09-28T03:36:13.936Z,7.80
2022-09-28T03:38:42.471Z,7.70
2022-09-28T03:41:13.262Z,7.70
2022-09-28T03:43:52.225Z,7.70
2022-09-28T03:46:21.850Z,7.70
2022-09-28T03:48:56.001Z,7.90
2022-09-28T03:51:24.586Z,7.80
2022-09-28T03:54:07.147Z,7.90
2022-09-28T03:56:38.474Z,7.90
2022-09-28T03:59:07.181Z,7.90
2022-09-28T04:01:36.895Z,8.00
2022-09-28T04:04:06.466Z,7.90
2022-09-28T04:06:37.507Z,8.00
2022-09-28T04:09:19.534Z,7.90
2022-09-28T04:12:03.900Z,8.10
2022-09-28T04:14:51.747Z,8.00
2022-09-28T04:17:22.292Z,8.10
2022-09-28T04:19:50.684Z,8.10
2022-09-28T04:25:25.017Z,8.10
2022-09-28T04:28:13.053Z,8.20
2022-09-28T04:30:43.638Z,8.10
2022-09-28T04:33:11.816Z,8.10
2022-09-28T04:35:40.153Z,8.10
2022-09-28T04:38:08.547Z,8.10
2022-09-28T04:40:38.370Z,7.90
2022-09-28T04:43:12.916Z,8.00
2022-09-28T04:45:41.267Z,8.00
2022-09-28T04:48:26.081Z,8.10
2022-09-28T04:54:05.409Z,8.10
2022-09-28T04:56:56.289Z,8.00
2022-09-28T05:02:56.169Z,8.10
2022-09-28T05:05:26.035Z,8.10
2022-09-28T05:08:35.608Z,8.10
2022-09-28T05:11:07.595Z,8.10
2022-09-28T05:13:48.977Z,8.00
2022-09-28T05:17:09.970Z,7.90
2022-09-28T05:29:03.510Z,8.00
2022-09-28T05:32:09.290Z,8.00
2022-09-28T05:34:44.437Z,8.00
2022-09-28T05:37:22.435Z,8.10
2022-09-28T05:43:37.338Z,7.90
2022-09-28T05:46:14.141Z,7.90
2022-09-28T05:48:53.448Z,7.80
2022-09-28T05:51:22.270Z,7.90
2022-09-28T05:53:51.905Z,7.80
2022-09-28T05:56:22.245Z,7.80
2022-09-28T05:58:59.929Z,7.80
2022-09-28T06:01:28.212Z,7.80
2022-09-28T06:04:00.235Z,7.70
2022-09-28T06:06:28.635Z,7.80
2022-09-28T06:08:57.046Z,7.70
2022-09-28T06:11:29.989Z,7.70
2022-09-28T06:14:01.130Z,7.80
2022-09-28T06:16:30.839Z,7.70
2022-09-28T06:19:00.568Z,7.70
2022-09-28T06:21:31.678Z,7.70
2022-09-28T06:24:01.193Z,7.70
2022-09-28T06:26:30.919Z,7.70
2022-09-28T06:29:00.606Z,7.60
2022-09-28T06:31:31.383Z,7.70
2022-09-28T06:34:02.324Z,7.80
2022-09-28T06:36:31.443Z,7.70
2022-09-28T06:41:58.638Z,7.70
2022-09-28T06:44:31.703Z,7.70
2022-09-28T06:47:03.795Z,7.70
2022-09-28T06:49:33.609Z,8.00
2022-09-28T06:52:04.002Z,7.90
2022-09-28T06:54:32.390Z,8.10
2022-09-28T06:57:00.936Z,8.10
2022-09-28T06:59:29.971Z,8.30
2022-09-28T07:02:02.138Z,8.60
2022-09-28T07:04:39.377Z,9.10
2022-09-28T07:07:10.786Z,9.20
2022-09-28T07:09:43.831Z,9.10
2022-09-28T07:12:21.166Z,8.80
2022-09-28T07:14:56.279Z,8.70
2022-09-28T07:17:26.224Z,8.70
2022-09-28T07:20:17.511Z,8.70
2022-09-28T07:23:05.026Z,8.80
2022-09-28T07:25:47.770Z,8.60
2022-09-28T07:28:18.352Z,8.60
2022-09-28T07:30:52.426Z,8.80
2022-09-28T07:37:53.125Z,8.90
2022-09-28T07:41:07.964Z,9.00
2022-09-28T07:43:48.968Z,9.00
2022-09-28T07:46:20.444Z,8.90
2022-09-28T07:48:52.845Z,8.90
2022-09-28T07:51:21.410Z,8.80
2022-09-28T07:53:57.813Z,9.00
2022-09-28T07:56:26.277Z,9.10
2022-09-28T07:58:54.724Z,9.20
2022-09-28T08:01:37.373Z,10.20
2022-09-28T08:04:07.834Z,9.70
2022-09-28T08:06:50.321Z,9.40
2022-09-28T08:09:40.597Z,10.50
2022-09-28T08:12:43.681Z,10.60
2022-09-28T08:18:51.338Z,9.80
2022-09-28T08:21:44.517Z,9.50
2022-09-28T08:24:16.968Z,9.40
2022-09-28T08:26:48.508Z,9.60
2022-09-28T08:29:17.074Z,9.60
2022-09-28T08:35:26.368Z,11.10
2022-09-28T08:42:15.857Z,11.10
2022-09-28T08:44:49.367Z,10.80
2022-09-28T08:50:55.418Z,12.80
2022-09-28T08:53:48.556Z,11.00
2022-09-28T08:56:42.263Z,10.40
2022-09-28T08:59:21.193Z,10.10
2022-09-28T09:15:44.507Z,9.70
2022-09-28T09:18:28.700Z,9.90
2022-09-28T09:21:36.171Z,10.20
2022-09-28T09:24:33.241Z,10.80
2022-09-28T09:27:08.451Z,10.50
2022-09-28T09:29:56.168Z,10.40
2022-09-28T09:32:44.619Z,10.50
2022-09-28T09:35:43.872Z,10.30
2022-09-28T09:38:28.996Z,10.40
2022-09-28T09:45:28.834Z,10.20
2022-09-28T09:48:16.479Z,10.30
2022-09-28T09:53:21.161Z,10.20
2022-09-28T09:55:57.482Z,10.40
2022-09-28T10:02:45.076Z,10.40
2022-09-28T10:05:28.610Z,10.90
2022-09-28T10:08:09.463Z,10.80
2022-09-28T10:10:53.818Z,11.40
2022-09-28T10:13:23.384Z,11.50
2022-09-28T10:15:53.210Z,11.40
2022-09-28T10:18:22.752Z,11.60
2022-09-28T10:20:53.846Z,11.30
2022-09-28T10:23:53.313Z,11.20
2022-09-28T10:26:58.906Z,11.20
2022-09-28T10:37:40.667Z,11.50
2022-09-28T10:40:48.743Z,11.60
2022-09-28T10:47:03.960Z,10.90
2022-09-28T10:49:47.463Z,11.10
2022-09-28T10:53:06.143Z,11.70
2022-09-28T10:55:39.319Z,11.70
2022-09-28T10:58:55.966Z,11.50
2022-09-28T11:01:39.832Z,11.40
2022-09-28T11:07:33.108Z,11.70
2022-09-28T11:11:04.444Z,11.70
2022-09-28T11:13:53.276Z,11.40
2022-09-28T11:16:43.977Z,11.70
2022-09-28T11:19:39.478Z,11.40
2022-09-28T11:22:24.772Z,11.30
2022-09-28T11:24:53.584Z,11.20
2022-09-28T11:27:26.415Z,11.20
2022-09-28T11:36:47.549Z,11.30
2022-09-28T11:39:38.679Z,11.10
2022-09-28T11:42:47.489Z,10.90
2022-09-28T11:45:58.183Z,10.90
2022-09-28T11:48:34.302Z,10.60
2022-09-28T11:51:07.964Z,10.50
2022-09-28T11:53:40.172Z,10.60
2022-09-28T11:56:19.524Z,10.70
2022-09-28T12:02:58.003Z,10.20
2022-09-28T12:13:31.342Z,10.70
2022-09-28T12:17:00.437Z,10.60
2022-09-28T12:19:29.230Z,10.80
2022-09-28T12:25:39.374Z,11.60
2022-09-28T12:28:37.470Z,12.10
2022-09-28T12:31:45.934Z,12.30
2022-09-28T12:34:24.990Z,12.10
2022-09-28T12:37:10.194Z,11.50
2022-09-28T12:40:02.139Z,12.20
2022-09-28T12:43:12.839Z,11.70
2022-09-28T12:46:12.984Z,12.10
2022-09-28T12:56:00.598Z,11.20
2022-09-28T12:59:20.661Z,11.10
2022-09-28T13:02:41.313Z,11.40
2022-09-28T13:05:42.516Z,11.10
2022-09-28T13:09:10.504Z,11.30
2022-09-28T13:12:24.683Z,11.50
2022-09-28T13:18:30.561Z,11.80
2022-09-28T13:25:35.624Z,11.60
2022-09-28T13:28:38.583Z,12.10
2022-09-28T13:31:43.476Z,12.20
2022-09-28T13:34:24.688Z,12.00
2022-09-28T13:37:41.605Z,12.00
2022-09-28T13:40:23.635Z,12.40
2022-09-28T13:43:45.770Z,12.50
2022-09-28T13:56:12.680Z,12.10
2022-09-28T13:58:58.069Z,12.00
2022-09-28T14:01:32.581Z,11.90
2022-09-28T14:04:17.688Z,11.90
2022-09-28T14:07:18.121Z,12.10
2022-09-28T14:10:13.604Z,11.80
2022-09-28T14:16:31.098Z,12.10
2022-09-28T14:22:47.772Z,11.90
2022-09-28T14:28:58.761Z,11.80
2022-09-28T14:31:33.525Z,11.90
2022-09-28T14:34:17.745Z,12.00
2022-09-28T14:40:18.924Z,12.30
2022-09-28T14:43:31.005Z,12.10
2022-09-28T14:46:53.397Z,11.90
2022-09-28T14:49:49.337Z,11.80
2022-09-28T14:52:43.942Z,11.60
2022-09-28T14:55:21.030Z,10.90
2022-09-28T15:01:50.836Z,10.60
2022-09-28T15:04:28.975Z,10.60
2022-09-28T15:07:01.335Z,10.50
2022-09-28T15:09:41.542Z,10.60
2022-09-28T15:12:19.707Z,10.70
2022-09-28T15:14:53.976Z,10.60
2022-09-28T15:17:25.331Z,10.60
2022-09-28T15:20:39.522Z,10.80
2022-09-28T15:23:54.737Z,10.90
2022-09-28T15:29:33.604Z,10.60
2022-09-28T15:32:10.547Z,10.40
2022-09-28T15:34:57.748Z,10.30
2022-09-28T15:37:28.888Z,10.40
2022-09-28T15:40:17.038Z,10.50
2022-09-28T15:42:46.721Z,10.60
2022-09-28T15:45:43.004Z,10.60
2022-09-28T15:48:32.086Z,10.70
2022-09-28T15:51:06.368Z,10.80
2022-09-28T16:00:28.239Z,10.80
2022-09-28T16:03:05.763Z,10.90
2022-09-28T16:05:42.976Z,10.90
2022-09-28T16:08:24.915Z,10.90
2022-09-28T16:11:11.208Z,10.80
2022-09-28T16:13:49.250Z,10.70
2022-09-28T16:20:15.370Z,10.70
2022-09-28T16:22:48.050Z,10.70
2022-09-28T16:25:30.359Z,10.60
2022-09-28T16:27:59.254Z,10.60
2022-09-28T16:30:30.959Z,10.60
2022-09-28T16:33:11.428Z,10.50
2022-09-28T16:35:56.714Z,10.60
2022-09-28T16:38:25.485Z,10.60
2022-09-28T16:41:06.614Z,10.60
2022-09-28T16:43:37.975Z,10.60
2022-09-28T16:46:11.923Z,10.50
2022-09-28T16:48:50.903Z,10.50
2022-09-28T16:51:22.854Z,10.50
2022-09-28T16:54:13.748Z,10.40
2022-09-28T16:56:47.799Z,10.40
2022-09-28T16:59:16.311Z,10.30
2022-09-28T17:01:49.777Z,10.20
2022-09-28T17:04:29.437Z,10.30
2022-09-28T17:07:08.317Z,10.20
2022-09-28T17:09:44.049Z,10.20
2022-09-28T17:12:18.590Z,10.10
2022-09-28T17:15:00.635Z,10.10
2022-09-28T17:17:31.792Z,9.90
2022-09-28T17:20:08.035Z,9.90
2022-09-28T17:22:39.933Z,9.70
2022-09-28T17:25:12.698Z,9.80
2022-09-28T17:27:47.444Z,9.80
2022-09-28T17:30:23.602Z,9.80
2022-09-28T17:32:55.546Z,9.70
2022-09-28T17:41:54.425Z,9.70
2022-09-28T17:44:23.428Z,9.70
2022-09-28T17:47:00.949Z,9.70
2022-09-28T17:49:35.805Z,9.70
2022-09-28T17:52:05.920Z,9.70
2022-09-28T17:54:38.114Z,9.70
2022-09-28T17:57:17.280Z,9.70
2022-09-28T17:59:59.564Z,9.60
2022-09-28T18:06:05.892Z,9.50
2022-09-28T18:08:36.259Z,9.50
2022-09-28T18:11:04.690Z,9.50
2022-09-28T18:13:33.002Z,9.50
2022-09-28T18:16:01.776Z,9.60
2022-09-28T18:18:37.144Z,9.50
2022-09-28T18:21:13.753Z,9.50
2022-09-28T18:27:35.294Z,9.60
2022-09-28T18:30:05.620Z,9.60
2022-09-28T18:32:43.168Z,9.50
2022-09-28T18:35:12.188Z,9.50
2022-09-28T18:37:41.171Z,9.50
2022-09-28T18:40:19.803Z,9.50
2022-09-28T18:42:51.581Z,9.60
2022-09-28T18:45:20.512Z,9.60
2022-09-28T18:47:48.797Z,9.60
2022-09-28T18:50:20.525Z,9.60
2022-09-28T18:52:48.988Z,9.60
2022-09-28T18:55:19.506Z,9.60
2022-09-28T18:57:47.828Z,9.60
2022-09-28T19:00:16.744Z,9.60
2022-09-28T19:06:31.316Z,9.50
2022-09-28T19:09:06.117Z,9.50
2022-09-28T19:11:41.904Z,9.50
2022-09-28T19:14:30.225Z,9.40
2022-09-28T19:17:18.857Z,9.40
2022-09-28T19:19:51.334Z,9.30
2022-09-28T19:22:19.762Z,9.30
2022-09-28T19:24:48.108Z,9.30
2022-09-28T19:27:18.882Z,9.20
2022-09-28T19:30:28.177Z,9.20
2022-09-28T19:33:33.929Z,9.20
2022-09-28T19:36:33.091Z,9.10
2022-09-28T19:45:57.490Z,9.10
2022-09-28T19:48:27.933Z,9.20
2022-09-28T19:50:58.666Z,9.20
2022-09-28T19:53:33.317Z,9.20
2022-09-28T19:56:07.179Z,9.20
2022-09-28T19:58:37.822Z,9.20
2022-09-28T20:01:08.680Z,9.10
2022-09-28T20:03:43.305Z,9.10
2022-09-28T20:06:16.422Z,9.10
2022-09-28T20:08:45.805Z,9.10
2022-09-28T20:11:16.520Z,9.10
2022-09-28T20:13:45.566Z,9.10
2022-09-28T20:16:17.178Z,9.10
2022-09-28T20:19:12.861Z,9.10
2022-09-28T20:21:41.122Z,9.10
2022-09-28T20:24:12.185Z,9.10
2022-09-28T20:26:40.528Z,9.00
2022-09-28T20:29:12.025Z,9.00
2022-09-28T20:31:48.951Z,9.00
2022-09-28T20:34:17.960Z,9.00
2022-09-28T20:36:46.510Z,9.00
2022-09-28T20:39:21.206Z,8.90
2022-09-28T20:41:56.380Z,8.90
2022-09-28T20:44:25.242Z,8.80
2022-09-28T20:46:56.968Z,8.70
2022-09-28T20:49:27.296Z,8.70
2022-09-28T20:51:56.458Z,8.80
2022-09-28T20:54:29.536Z,8.70
2022-09-28T20:56:57.832Z,8.70
2022-09-28T20:59:31.367Z,8.80
2022-09-28T21:02:01.107Z,8.80
2022-09-28T21:04:29.553Z,8.80
2022-09-28T21:06:58.758Z,8.60
2022-09-28T21:09:27.128Z,8.80
2022-09-28T21:11:55.808Z,8.80
2022-09-28T21:14:48.416Z,8.80
2022-09-28T21:17:22.915Z,8.80
2022-09-28T21:19:53.686Z,8.70
2022-09-28T21:22:22.081Z,8.70
2022-09-28T21:24:50.337Z,8.70
2022-09-28T21:27:18.793Z,8.80
2022-09-28T21:29:48.244Z,8.80
2022-09-28T21:32:17.870Z,8.80
2022-09-28T21:34:46.724Z,8.80
2022-09-28T21:37:16.533Z,8.80
2022-09-28T21:39:46.563Z,8.80
2022-09-28T21:42:14.924Z,8.80
2022-09-28T21:44:43.140Z,8.80
2022-09-28T21:47:13.324Z,8.60
2022-09-28T21:49:43.157Z,8.60
2022-09-28T21:52:13.208Z,8.60
2022-09-28T21:54:44.669Z,8.60
2022-09-28T21:57:13.429Z,8.70
2022-09-28T21:59:47.352Z,8.70
2022-09-28T22:02:15.901Z,8.70
2022-09-28T22:04:54.160Z,8.60
2022-09-28T22:07:25.915Z,8.60
2022-09-28T22:09:54.534Z,8.60
2022-09-28T22:12:23.383Z,8.60
2022-09-28T22:14:51.827Z,8.60
2022-09-28T22:17:20.389Z,8.60
2022-09-28T22:19:50.305Z,8.50
2022-09-28T22:22:19.143Z,8.50
2022-09-28T22:24:48.547Z,8.60
2022-09-28T22:27:18.771Z,8.50
2022-09-28T22:29:47.077Z,8.50
2022-09-28T22:32:16.008Z,8.60
2022-09-28T22:34:46.294Z,8.50
2022-09-28T22:37:23.738Z,8.60
2022-09-28T22:39:53.743Z,8.60
2022-09-28T22:42:23.567Z,8.60
2022-09-28T22:44:54.226Z,8.50
2022-09-28T22:47:23.650Z,8.60
2022-09-28T22:49:52.327Z,8.50
2022-09-28T22:52:22.934Z,8.50
2022-09-28T22:54:51.326Z,8.50
2022-09-28T22:57:23.289Z,8.40
2022-09-28T22:59:56.745Z,8.50
2022-09-28T23:02:25.244Z,8.50
2022-09-28T23:04:56.148Z,8.40
2022-09-28T23:07:26.379Z,8.40
2022-09-28T23:09:58.890Z,8.40
2022-09-28T23:12:27.570Z,8.40
2022-09-28T23:14:55.732Z,8.40
2022-09-28T23:17:25.533Z,8.40
2022-09-28T23:19:57.872Z,8.40
2022-09-28T23:22:27.565Z,8.50
2022-09-28T23:25:09.366Z,8.50
2022-09-28T23:27:40.908Z,8.50
2022-09-28T23:30:11.449Z,8.50
2022-09-28T23:32:54.005Z,8.40
2022-09-28T23:35:23.424Z,8.40
2022-09-28T23:37:54.472Z,8.30
2022-09-28T23:40:22.691Z,8.30
2022-09-28T23:42:50.988Z,8.30
2022-09-28T23:45:21.822Z,8.20
2022-09-28T23:47:52.306Z,8.20
2022-09-28T23:50:21.918Z,8.20
2022-09-28T23:52:53.469Z,8.20
2022-09-28T23:55:22.998Z,8.20
2022-09-28T23:57:52.894Z,8.10
